createdAt,value
2019-05-05T00:02:37.759Z,3.09
2019-05-05T00:05:24.605Z,3.08
2019-05-05T00:08:11.127Z,3.04
2019-05-05T00:10:57.477Z,2.96
2019-05-05T00:13:44.725Z,2.90
2019-05-05T00:17:02.111Z,2.90
2019-05-05T00:19:34.047Z,2.86
2019-05-05T00:21:49.230Z,2.86
2019-05-05T00:24:36.050Z,2.81
2019-05-05T00:27:04.300Z,2.79
2019-05-05T00:29:50.901Z,2.66
2019-05-05T00:32:37.323Z,2.54
2019-05-05T00:35:25.267Z,2.43
2019-05-05T00:37:54.432Z,2.31
2019-05-05T00:40:41.137Z,2.22
2019-05-05T00:43:08.878Z,2.22
2019-05-05T00:45:55.687Z,2.12
2019-05-05T00:51:21.870Z,2.08
2019-05-05T00:53:51.182Z,2.08
2019-05-05T00:56:18.760Z,2.07
2019-05-05T00:59:05.131Z,2.08
2019-05-05T01:01:51.585Z,2.08
2019-05-05T01:04:37.994Z,1.97
2019-05-05T01:07:05.710Z,1.90
2019-05-05T01:10:04.960Z,1.90
2019-05-05T01:12:23.788Z,1.86
2019-05-05T01:15:10.011Z,1.86
2019-05-05T01:17:37.562Z,1.87
2019-05-05T01:20:24.979Z,1.89
2019-05-05T01:22:55.297Z,1.90
2019-05-05T01:25:25.296Z,1.89
2019-05-05T01:27:54.470Z,2.00
2019-05-05T01:30:25.406Z,2.07
2019-05-05T01:32:57.150Z,2.18
2019-05-05T01:35:44.796Z,2.26
2019-05-05T01:38:31.575Z,2.32
2019-05-05T01:41:25.264Z,2.35
2019-05-05T01:43:54.196Z,2.41
2019-05-05T01:46:42.073Z,2.47
2019-05-05T01:49:28.519Z,2.54
2019-05-05T02:02:55.335Z,2.29
2019-05-05T02:05:41.845Z,2.22
2019-05-05T02:08:09.655Z,2.26
2019-05-05T02:10:56.344Z,2.34
2019-05-05T02:13:25.135Z,2.41
2019-05-05T02:15:55.223Z,2.41
2019-05-05T02:18:41.404Z,2.43
2019-05-05T02:21:27.812Z,2.41
2019-05-05T02:23:55.369Z,2.41
2019-05-05T02:26:41.715Z,2.41
2019-05-05T02:32:25.625Z,2.43
2019-05-05T02:37:45.725Z,2.46
2019-05-05T02:40:31.614Z,2.52
2019-05-05T02:43:17.979Z,2.51
2019-05-05T02:48:35.458Z,2.53
2019-05-05T02:51:06.662Z,2.54
2019-05-05T02:53:53.633Z,2.62
2019-05-05T02:59:16.191Z,2.76
2019-05-05T03:02:04.285Z,2.76
2019-05-05T03:04:33.636Z,2.81
2019-05-05T03:07:20.392Z,2.90
2019-05-05T03:09:48.096Z,2.90
2019-05-05T03:12:34.675Z,3.02
2019-05-05T03:15:21.129Z,3.05
2019-05-05T03:18:07.829Z,3.06
2019-05-05T03:20:35.537Z,3.12
2019-05-05T03:23:04.228Z,3.12
2019-05-05T03:25:51.412Z,3.22
2019-05-05T03:31:26.240Z,3.54
2019-05-05T03:33:54.968Z,3.54
2019-05-05T03:36:24.519Z,3.63
2019-05-05T03:41:45.073Z,3.80
2019-05-05T03:44:33.530Z,3.78
2019-05-05T03:47:01.150Z,3.78
2019-05-05T03:49:28.858Z,3.75
2019-05-05T03:51:56.663Z,3.78
2019-05-05T03:54:43.549Z,3.78
2019-05-05T03:57:11.647Z,3.86
2019-05-05T03:59:58.051Z,3.86
2019-05-05T04:05:36.923Z,3.98
2019-05-05T04:08:04.627Z,4.02
2019-05-05T04:10:33.518Z,4.02
2019-05-05T04:13:01.889Z,3.99
2019-05-05T04:18:26.476Z,3.94
2019-05-05T04:23:28.477Z,3.89
2019-05-05T04:29:20.391Z,3.86
2019-05-05T04:32:06.771Z,3.86
2019-05-05T04:37:26.891Z,3.92
2019-05-05T04:40:14.803Z,3.95
2019-05-05T04:45:29.137Z,4.03
2019-05-05T04:48:15.623Z,4.29
2019-05-05T04:51:02.075Z,4.29
2019-05-05T04:53:48.436Z,4.42
2019-05-05T04:58:49.341Z,4.55
2019-05-05T05:01:35.712Z,4.67
2019-05-05T05:04:24.183Z,4.73
2019-05-05T05:06:54.302Z,4.73
2019-05-05T05:09:23.789Z,4.78
2019-05-05T05:11:54.562Z,4.88
2019-05-05T05:14:40.786Z,4.94
2019-05-05T05:19:47.339Z,5.13
2019-05-05T05:22:33.688Z,5.13
2019-05-05T05:25:01.350Z,5.24
2019-05-05T05:27:28.951Z,5.35
2019-05-05T05:30:15.373Z,5.44
2019-05-05T05:32:44.581Z,5.57
2019-05-05T05:35:14.141Z,5.57
2019-05-05T05:37:41.876Z,5.72
2019-05-05T05:40:28.312Z,5.74
2019-05-05T05:43:14.740Z,5.74
2019-05-05T05:51:04.706Z,5.71
2019-05-05T05:53:51.139Z,5.71
2019-05-05T05:56:18.820Z,5.67
2019-05-05T05:58:46.437Z,5.67
2019-05-05T06:01:34.535Z,5.68
2019-05-05T06:04:04.088Z,5.71
2019-05-05T06:06:31.682Z,5.77
2019-05-05T06:09:30.517Z,5.92
2019-05-05T06:11:47.433Z,5.92
2019-05-05T06:14:15.007Z,6.10
2019-05-05T06:17:01.439Z,6.10
2019-05-05T06:19:29.177Z,6.21
2019-05-05T06:22:28.071Z,6.38
2019-05-05T06:24:47.221Z,6.38
2019-05-05T06:27:15.081Z,6.48
2019-05-05T06:29:45.623Z,6.52
2019-05-05T06:32:14.545Z,6.53
2019-05-05T06:34:44.264Z,6.53
2019-05-05T06:37:14.335Z,6.54
2019-05-05T06:39:43.822Z,6.55
2019-05-05T06:42:30.141Z,6.56
2019-05-05T06:47:57.522Z,6.62
2019-05-05T06:50:25.217Z,6.62
2019-05-05T06:52:53.715Z,6.88
2019-05-05T06:55:24.452Z,7.03
2019-05-05T06:57:53.773Z,7.14
2019-05-05T07:00:39.948Z,7.19
2019-05-05T07:03:26.378Z,7.24
2019-05-05T07:06:17.217Z,7.33
2019-05-05T07:08:44.978Z,7.33
2019-05-05T07:11:31.409Z,7.44
2019-05-05T07:17:24.523Z,7.41
2019-05-05T07:19:54.384Z,7.39
2019-05-05T07:22:40.509Z,7.36
2019-05-05T07:25:39.598Z,7.32
2019-05-05T07:28:14.971Z,7.32
2019-05-05T07:33:34.741Z,7.17
2019-05-05T07:36:24.848Z,7.16
2019-05-05T07:39:10.526Z,7.12
2019-05-05T07:41:40.497Z,7.10
2019-05-05T07:44:29.565Z,7.09
2019-05-05T07:46:56.182Z,7.14
2019-05-05T07:49:44.158Z,7.13
2019-05-05T07:52:14.971Z,7.13
2019-05-05T07:55:00.442Z,7.15
2019-05-05T07:57:28.192Z,7.18
2019-05-05T08:00:14.908Z,7.29
2019-05-05T08:05:34.404Z,7.57
2019-05-05T08:08:04.597Z,7.57
2019-05-05T08:10:34.406Z,7.54
2019-05-05T08:13:21.408Z,7.50
2019-05-05T08:19:08.408Z,7.44
2019-05-05T08:21:25.253Z,7.44
2019-05-05T08:24:13.854Z,7.55
2019-05-05T08:29:55.402Z,7.73
2019-05-05T08:32:43.599Z,7.99
2019-05-05T08:35:29.872Z,7.99
2019-05-05T08:40:54.493Z,8.33
2019-05-05T08:43:24.100Z,8.49
2019-05-05T08:45:51.729Z,8.49
2019-05-05T08:48:21.262Z,8.44
2019-05-05T08:50:48.817Z,8.45
2019-05-05T08:53:17.936Z,8.45
2019-05-05T08:55:47.809Z,8.44
2019-05-05T08:58:16.308Z,8.41
2019-05-05T09:00:53.785Z,8.41
2019-05-05T09:03:18.799Z,8.46
2019-05-05T09:05:48.077Z,8.47
2019-05-05T09:08:15.989Z,8.42
2019-05-05T09:10:44.772Z,8.38
2019-05-05T09:13:14.440Z,8.43
2019-05-05T09:15:46.632Z,8.46
2019-05-05T09:18:18.994Z,8.46
2019-05-05T09:20:46.665Z,8.52
2019-05-05T09:23:24.052Z,8.67
2019-05-05T09:26:00.167Z,8.86
2019-05-05T09:28:46.153Z,9.02
2019-05-05T09:31:14.643Z,9.02
2019-05-05T09:33:44.779Z,9.46
2019-05-05T09:36:13.899Z,9.71
2019-05-05T09:38:41.572Z,9.71
2019-05-05T09:41:09.642Z,9.93
2019-05-05T09:43:37.278Z,10.12
2019-05-05T09:46:14.431Z,10.34
2019-05-05T09:48:44.032Z,10.57
2019-05-05T09:51:13.622Z,10.68
2019-05-05T09:53:41.085Z,10.89
2019-05-05T09:56:14.337Z,10.89
2019-05-05T09:58:40.087Z,11.30
2019-05-05T10:01:07.977Z,11.30
2019-05-05T10:03:37.168Z,11.68
2019-05-05T10:06:05.195Z,12.81
2019-05-05T10:08:36.832Z,12.81
2019-05-05T10:11:09.238Z,13.11
2019-05-05T10:13:36.965Z,13.45
2019-05-05T10:16:04.585Z,13.80
2019-05-05T10:18:35.526Z,13.80
2019-05-05T10:21:04.466Z,14.38
2019-05-05T10:23:34.203Z,15.10
2019-05-05T10:26:07.470Z,15.87
2019-05-05T10:28:35.532Z,15.84
2019-05-05T10:31:04.664Z,15.84
2019-05-05T10:33:36.525Z,15.65
2019-05-05T10:36:07.208Z,16.15
2019-05-05T10:38:36.475Z,16.92
2019-05-05T10:41:04.488Z,17.32
2019-05-05T10:43:34.228Z,16.25
2019-05-05T10:46:01.402Z,16.25
2019-05-05T10:48:29.400Z,16.02
2019-05-05T10:50:57.134Z,16.42
2019-05-05T10:53:27.163Z,17.05
2019-05-05T10:55:55.288Z,17.54
2019-05-05T10:58:24.437Z,17.21
2019-05-05T11:00:56.938Z,16.88
2019-05-05T11:03:26.083Z,16.88
2019-05-05T11:05:53.995Z,16.41
2019-05-05T11:08:21.576Z,15.84
2019-05-05T11:10:49.592Z,15.23
2019-05-05T11:13:17.310Z,14.66
2019-05-05T11:15:48.027Z,13.98
2019-05-05T11:18:20.691Z,12.36
2019-05-05T11:20:48.663Z,12.36
2019-05-05T11:23:16.320Z,11.74
2019-05-05T11:25:45.973Z,11.02
2019-05-05T11:28:16.159Z,10.81
2019-05-05T11:30:44.370Z,10.81
2019-05-05T11:33:29.920Z,10.78
2019-05-05T11:36:13.811Z,11.10
2019-05-05T11:38:44.764Z,11.87
2019-05-05T11:41:14.526Z,12.19
2019-05-05T11:43:45.291Z,12.03
2019-05-05T11:46:14.205Z,11.71
2019-05-05T11:48:43.877Z,11.35
2019-05-05T11:51:11.823Z,11.35
2019-05-05T11:53:39.476Z,11.24
2019-05-05T11:56:07.153Z,11.17
2019-05-05T11:58:35.179Z,11.13
2019-05-05T12:01:03.773Z,11.20
2019-05-05T12:03:33.739Z,11.34
2019-05-05T12:06:04.341Z,11.42
2019-05-05T12:08:34.486Z,11.62
2019-05-05T12:11:10.192Z,11.62
2019-05-05T12:13:40.888Z,11.86
2019-05-05T12:16:11.276Z,12.30
2019-05-05T12:18:41.223Z,12.30
2019-05-05T12:21:09.692Z,13.24
2019-05-05T12:23:37.654Z,13.24
2019-05-05T12:26:31.075Z,14.15
2019-05-05T12:29:02.196Z,16.05
2019-05-05T12:31:30.637Z,16.05
2019-05-05T12:33:58.293Z,17.10
2019-05-05T12:36:27.608Z,18.36
2019-05-05T12:38:57.234Z,19.36
2019-05-05T12:41:27.234Z,19.94
2019-05-05T12:43:55.273Z,20.65
2019-05-05T12:46:34.088Z,21.50
2019-05-05T12:49:04.647Z,21.50
2019-05-05T12:51:34.133Z,21.87
2019-05-05T12:54:01.310Z,21.82
2019-05-05T12:56:33.846Z,21.82
2019-05-05T12:59:07.296Z,21.17
2019-05-05T13:01:36.962Z,18.48
2019-05-05T13:04:04.597Z,18.48
2019-05-05T13:06:34.383Z,17.42
2019-05-05T13:09:01.936Z,17.49
2019-05-05T13:11:29.664Z,18.40
2019-05-05T13:13:57.316Z,19.39
2019-05-05T13:16:27.774Z,19.39
2019-05-05T13:18:55.410Z,19.90
2019-05-05T13:21:41.009Z,20.64
2019-05-05T13:24:25.906Z,21.32
2019-05-05T13:27:01.068Z,21.84
2019-05-05T13:29:33.735Z,21.28
2019-05-05T13:32:03.505Z,20.07
2019-05-05T13:34:30.524Z,19.51
2019-05-05T13:36:58.180Z,19.63
2019-05-05T13:39:27.341Z,20.69
2019-05-05T13:41:54.979Z,21.77
2019-05-05T13:44:47.640Z,22.53
2019-05-05T13:47:15.386Z,22.96
2019-05-05T13:49:43.693Z,23.26
2019-05-05T13:52:13.790Z,23.36
2019-05-05T13:54:43.883Z,23.66
2019-05-05T13:57:11.541Z,22.61
2019-05-05T13:59:41.503Z,22.61
2019-05-05T14:02:13.584Z,22.54
2019-05-05T14:04:43.786Z,23.04
2019-05-05T14:07:11.920Z,23.53
2019-05-05T14:09:39.527Z,23.27
2019-05-05T14:12:14.638Z,22.57
2019-05-05T14:14:55.346Z,21.23
2019-05-05T14:17:23.999Z,19.83
2019-05-05T14:20:04.533Z,18.33
2019-05-05T14:22:24.301Z,17.15
2019-05-05T14:24:56.867Z,16.16
2019-05-05T14:27:24.957Z,15.42
2019-05-05T14:30:00.792Z,14.86
2019-05-05T14:32:34.659Z,14.07
2019-05-05T14:35:21.549Z,14.07
2019-05-05T14:37:53.509Z,13.85
2019-05-05T14:40:23.809Z,13.58
2019-05-05T14:42:51.380Z,13.24
2019-05-05T14:45:19.110Z,12.20
2019-05-05T14:47:46.708Z,12.20
2019-05-05T14:50:15.528Z,11.68
2019-05-05T14:52:53.481Z,11.25
2019-05-05T14:55:22.452Z,10.65
2019-05-05T14:57:53.334Z,10.65
2019-05-05T15:00:24.221Z,10.34
2019-05-05T15:02:51.492Z,10.27
2019-05-05T15:05:38.852Z,10.27
2019-05-05T15:08:19.369Z,10.24
2019-05-05T15:10:54.641Z,10.27
2019-05-05T15:13:24.138Z,10.27
2019-05-05T15:15:54.097Z,10.54
2019-05-05T15:18:24.176Z,11.05
2019-05-05T15:20:54.950Z,12.88
2019-05-05T15:23:24.059Z,12.88
2019-05-05T15:25:53.916Z,13.37
2019-05-05T15:28:26.260Z,13.28
2019-05-05T15:31:03.016Z,13.07
2019-05-05T15:33:33.637Z,13.07
2019-05-05T15:36:00.445Z,12.60
2019-05-05T15:38:31.263Z,12.53
2019-05-05T15:41:03.893Z,12.53
2019-05-05T15:43:33.405Z,12.58
2019-05-05T15:46:07.140Z,12.15
2019-05-05T15:48:36.000Z,11.87
2019-05-05T15:51:06.634Z,11.65
2019-05-05T15:53:38.395Z,11.65
2019-05-05T15:56:06.551Z,11.41
2019-05-05T15:58:35.510Z,11.06
2019-05-05T16:01:03.786Z,11.06
2019-05-05T16:03:31.485Z,10.73
2019-05-05T16:05:59.538Z,10.62
2019-05-05T16:08:27.107Z,10.45
2019-05-05T16:10:54.837Z,10.45
2019-05-05T16:13:22.828Z,10.34
2019-05-05T16:16:05.377Z,10.20
2019-05-05T16:18:46.539Z,10.20
2019-05-05T16:21:23.634Z,10.20
2019-05-05T16:23:56.422Z,10.21
2019-05-05T16:26:24.593Z,10.22
2019-05-05T16:28:56.131Z,10.84
2019-05-05T16:31:27.779Z,10.84
2019-05-05T16:33:57.907Z,10.75
2019-05-05T16:36:25.561Z,10.66
2019-05-05T16:38:53.611Z,10.63
2019-05-05T16:41:23.776Z,10.63
2019-05-05T16:43:55.590Z,10.66
2019-05-05T16:46:21.113Z,10.66
2019-05-05T16:48:51.507Z,10.66
2019-05-05T16:51:28.596Z,10.64
2019-05-05T16:53:58.029Z,10.59
2019-05-05T16:56:25.606Z,10.57
2019-05-05T16:58:59.385Z,10.56
2019-05-05T17:01:27.337Z,10.56
2019-05-05T17:04:09.139Z,10.60
2019-05-05T17:06:27.482Z,10.67
2019-05-05T17:08:55.391Z,10.67
2019-05-05T17:11:24.501Z,10.74
2019-05-05T17:14:11.019Z,10.98
2019-05-05T17:16:57.489Z,11.14
2019-05-05T17:19:44.401Z,11.14
2019-05-05T17:27:29.486Z,11.33
2019-05-05T17:29:57.381Z,11.26
2019-05-05T17:32:25.498Z,11.16
2019-05-05T17:34:57.254Z,11.03
2019-05-05T17:37:26.528Z,11.03
2019-05-05T17:40:10.707Z,10.90
2019-05-05T17:43:05.259Z,10.57
2019-05-05T17:45:49.494Z,10.42
2019-05-05T17:48:25.479Z,10.28
2019-05-05T17:50:59.577Z,10.28
2019-05-05T17:53:35.942Z,10.17
2019-05-05T17:59:01.081Z,10.02
2019-05-05T18:01:28.750Z,9.89
2019-05-05T18:04:15.176Z,9.88
2019-05-05T18:07:04.271Z,9.88
2019-05-05T18:09:53.807Z,9.88
2019-05-05T18:12:40.317Z,9.82
2019-05-05T18:15:26.764Z,9.70
2019-05-05T18:20:59.711Z,9.53
2019-05-05T18:23:46.126Z,9.48
2019-05-05T18:26:34.056Z,9.48
2019-05-05T18:29:03.798Z,9.45
2019-05-05T18:31:50.173Z,9.39
2019-05-05T18:34:30.003Z,9.34
2019-05-05T18:37:06.172Z,9.34
2019-05-05T18:39:54.504Z,9.31
2019-05-05T18:42:40.992Z,9.31
2019-05-05T18:48:18.221Z,9.28
2019-05-05T18:50:48.068Z,9.22
2019-05-05T18:53:18.665Z,9.22
2019-05-05T18:55:46.588Z,9.18
2019-05-05T18:58:27.284Z,9.18
2019-05-05T19:01:07.096Z,9.16
2019-05-05T19:03:43.635Z,9.12
2019-05-05T19:06:29.189Z,9.10
2019-05-05T19:08:57.358Z,9.08
2019-05-05T19:11:25.002Z,9.08
2019-05-05T19:13:56.009Z,9.03
2019-05-05T19:16:25.276Z,8.99
2019-05-05T19:19:14.366Z,8.96
2019-05-05T19:21:47.044Z,8.96
2019-05-05T19:24:16.889Z,8.88
2019-05-05T19:26:44.537Z,8.88
2019-05-05T19:29:44.165Z,8.83
2019-05-05T19:35:40.176Z,8.78
2019-05-05T19:41:00.580Z,8.67
2019-05-05T19:43:47.055Z,8.62
2019-05-05T19:46:34.664Z,8.56
2019-05-05T19:49:21.622Z,8.53
2019-05-05T19:52:07.996Z,8.50
2019-05-05T19:54:36.378Z,8.43
2019-05-05T19:57:23.804Z,8.40
2019-05-05T20:00:26.289Z,8.38
2019-05-05T20:03:04.618Z,8.38
2019-05-05T20:05:46.387Z,8.25
2019-05-05T20:08:40.355Z,8.19
2019-05-05T20:11:20.877Z,8.19
2019-05-05T20:14:10.183Z,8.15
2019-05-05T20:16:55.357Z,8.08
2019-05-05T20:19:43.794Z,8.00
2019-05-05T20:22:29.817Z,7.89
2019-05-05T20:25:16.282Z,7.86
2019-05-05T20:28:05.313Z,7.82
2019-05-05T20:30:53.906Z,7.77
2019-05-05T20:36:27.091Z,7.66
2019-05-05T20:38:55.757Z,7.66
2019-05-05T20:41:24.883Z,7.61
2019-05-05T20:44:13.822Z,7.55
2019-05-05T20:46:41.167Z,7.55
2019-05-05T20:49:27.531Z,7.52
2019-05-05T20:51:55.291Z,7.51
2019-05-05T20:54:43.614Z,7.51
2019-05-05T20:57:11.341Z,7.53
2019-05-05T20:59:39.539Z,7.54
2019-05-05T21:02:07.231Z,7.54
2019-05-05T21:04:35.136Z,7.57
2019-05-05T21:07:25.866Z,7.62
2019-05-05T21:15:29.430Z,7.66
2019-05-05T21:17:56.991Z,7.66
2019-05-05T21:20:24.702Z,7.66
2019-05-05T21:23:11.158Z,7.67
2019-05-05T21:25:41.123Z,7.67
2019-05-05T21:28:29.489Z,7.68
2019-05-05T21:31:38.121Z,7.66
2019-05-05T21:36:24.184Z,7.65
2019-05-05T21:38:51.458Z,7.62
2019-05-05T21:43:54.077Z,7.60
2019-05-05T21:46:23.815Z,7.59
2019-05-05T21:49:09.982Z,7.58
2019-05-05T21:51:56.427Z,7.58
2019-05-05T21:54:56.956Z,7.58
2019-05-05T21:57:30.933Z,7.58
2019-05-05T22:00:17.304Z,7.57
2019-05-05T22:10:34.276Z,7.48
2019-05-05T22:13:01.972Z,7.48
2019-05-05T22:15:48.403Z,7.42
2019-05-05T22:21:24.322Z,7.37
2019-05-05T22:24:13.123Z,7.35
2019-05-05T22:26:40.208Z,7.35
2019-05-05T22:29:07.972Z,7.34
2019-05-05T22:31:35.738Z,7.33
2019-05-05T22:34:23.921Z,7.31
2019-05-05T22:37:08.972Z,7.31
2019-05-05T22:39:24.362Z,7.25
2019-05-05T22:41:54.303Z,7.25
2019-05-05T22:47:27.703Z,7.19
2019-05-05T22:49:55.307Z,7.19
2019-05-05T22:52:25.324Z,7.18
2019-05-05T22:55:11.142Z,7.15
2019-05-05T22:57:38.889Z,7.11
2019-05-05T23:00:06.765Z,7.00
2019-05-05T23:02:54.910Z,7.00
2019-05-05T23:05:41.588Z,6.87
2019-05-05T23:08:29.318Z,6.76
2019-05-05T23:11:15.752Z,6.68
2019-05-05T23:13:44.358Z,6.68
2019-05-05T23:16:33.858Z,6.59
2019-05-05T23:24:48.116Z,6.33
2019-05-05T23:27:34.571Z,6.32
2019-05-05T23:30:20.990Z,6.29
2019-05-05T23:33:07.356Z,6.24
2019-05-05T23:35:55.068Z,6.20
2019-05-05T23:38:25.369Z,6.20
2019-05-05T23:41:14.459Z,6.08
2019-05-05T23:43:41.538Z,6.04
2019-05-05T23:46:27.977Z,5.98
2019-05-05T23:48:55.708Z,5.98
2019-05-05T23:52:14.236Z,5.90
2019-05-05T23:54:15.880Z,5.90
2019-05-05T23:57:04.535Z,5.86
2019-05-05T23:59:33.384Z,5.82
